Time;durP1;ratioP1;P1;durP2;ratioP2;P2;SDS_P1;SDS_P2;PMS_P1;PMS_P2;Temp;Humidity;BMP_temperature;BMP_pressure;BME280_temperature;BME280_humidity;BME280_pressure;Samples;Min_cycle;Max_cycle;Signal;HPM_P1;HPM_P2
2022/12/30 00:00:23;;;;;;;13.23;2.45;;;7.30;99.90;;;;;;5060388;28;20416;-91
2022/12/30 00:02:49;;;;;;;7.72;2.47;;;7.30;99.90;;;;;;5058992;28;20036;-91
2022/12/30 00:05:16;;;;;;;14.55;3.17;;;7.30;99.90;;;;;;5060533;28;20028;-91
2022/12/30 00:07:41;;;;;;;11.50;2.10;;;7.30;99.90;;;;;;5059351;28;20508;-91
2022/12/30 00:10:07;;;;;;;14.90;2.55;;;7.20;99.90;;;;;;5095162;28;20078;-91
2022/12/30 00:35:13;;;;;;;11.02;2.53;;;7.10;99.90;;;;;;4975944;28;20191;-91
2022/12/30 00:37:39;;;;;;;16.80;2.95;;;7.10;99.90;;;;;;4960760;28;20038;-91
2022/12/30 00:40:05;;;;;;;15.45;2.42;;;7.00;99.90;;;;;;4976152;28;20057;-91
2022/12/30 00:45:15;;;;;;;13.98;2.33;;;6.90;99.90;;;;;;4975628;28;20038;-91
2022/12/30 00:47:42;;;;;;;11.68;3.38;;;6.90;99.90;;;;;;4976009;28;20030;-91
2022/12/30 00:58:21;;;;;;;15.48;3.15;;;6.80;99.90;;;;;;5075319;28;20044;-90
2022/12/30 01:00:47;;;;;;;12.65;2.50;;;6.80;99.90;;;;;;5059228;28;20123;-90
2022/12/30 01:03:13;;;;;;;13.57;2.08;;;6.80;99.90;;;;;;5058462;28;20047;-91
2022/12/30 01:05:39;;;;;;;10.45;2.15;;;6.80;99.90;;;;;;5058909;28;20036;-91
2022/12/30 01:08:05;;;;;;;11.27;2.28;;;6.80;99.90;;;;;;5093875;28;20036;-92
2022/12/30 01:10:30;;;;;;;12.52;2.35;;;6.80;99.90;;;;;;5075060;28;20468;-92
2022/12/30 01:12:56;;;;;;;13.23;2.35;;;6.70;99.90;;;;;;5058478;28;20417;-91
2022/12/30 01:15:23;;;;;;;10.55;1.77;;;6.70;99.90;;;;;;5058511;28;20126;-91
2022/12/30 01:17:49;;;;;;;9.77;2.15;;;6.70;99.90;;;;;;5093643;28;20510;-91
2022/12/30 01:20:14;;;;;;;8.70;1.90;;;6.70;99.90;;;;;;5075434;28;20537;-91
2022/12/30 01:22:40;;;;;;;13.32;2.55;;;6.70;99.90;;;;;;5058286;28;20036;-91
2022/12/30 01:25:06;;;;;;;13.15;2.50;;;6.70;99.90;;;;;;5059253;28;20038;-91
2022/12/30 01:27:32;;;;;;;11.48;2.40;;;6.70;99.90;;;;;;5059157;28;20032;-90
2022/12/30 01:29:58;;;;;;;12.77;3.67;;;6.60;99.90;;;;;;5092430;28;20097;-91
2022/12/30 01:32:24;;;;;;;13.30;2.47;;;6.60;99.90;;;;;;5058578;28;20036;-90
2022/12/30 01:34:54;;;;;;;14.88;2.53;;;6.60;99.90;;;;;;5058453;28;20183;-92
2022/12/30 01:37:20;;;;;;;9.35;2.25;;;6.60;99.90;;;;;;5058108;28;20071;-91
2022/12/30 01:39:46;;;;;;;12.32;2.30;;;6.60;99.90;;;;;;5058572;28;20079;-91
2022/12/30 01:42:22;;;;;;;12.73;2.10;;;6.50;99.90;;;;;;5057279;28;20480;-91
2022/12/30 01:45:12;;;;;;;14.27;2.78;;;6.60;99.90;;;;;;5058184;28;20036;-91
2022/12/30 01:47:49;;;;;;;15.60;2.47;;;6.60;99.90;;;;;;5058786;28;20406;-91
2022/12/30 01:50:18;;;;;;;11.23;2.80;;;6.60;99.90;;;;;;5057329;28;20113;-91
2022/12/30 01:52:57;;;;;;;14.55;2.83;;;6.60;99.90;;;;;;5057810;28;20089;-91
2022/12/30 01:55:39;;;;;;;17.20;3.10;;;6.50;99.90;;;;;;5058167;28;20054;-91
2022/12/30 01:58:09;;;;;;;12.80;2.50;;;6.50;99.90;;;;;;5058076;28;20043;-91
2022/12/30 02:00:35;;;;;;;12.77;2.60;;;6.50;99.90;;;;;;5058123;28;20036;-91
2022/12/30 02:03:01;;;;;;;18.67;4.50;;;6.50;99.90;;;;;;5050662;28;20029;-91
2022/12/30 02:05:30;;;;;;;12.07;2.55;;;6.50;99.90;;;;;;5038230;28;20575;-91
2022/12/30 02:08:17;;;;;;;9.93;2.33;;;6.40;99.90;;;;;;5044097;28;20490;-90
2022/12/30 02:10:46;;;;;;;14.35;2.83;;;6.40;99.90;;;;;;5018468;28;20207;-91
2022/12/30 02:13:14;;;;;;;13.27;3.03;;;6.40;99.90;;;;;;5017768;28;20064;-90
2022/12/30 02:15:45;;;;;;;16.88;2.90;;;6.40;99.90;;;;;;5055128;28;20130;-90
2022/12/30 02:18:24;;;;;;;11.10;2.42;;;6.40;99.90;;;;;;5058262;28;20127;-90
2022/12/30 02:21:05;;;;;;;11.88;2.60;;;6.40;99.90;;;;;;5055964;28;20591;-90
2022/12/30 02:23:57;;;;;;;8.27;1.98;;;6.40;99.90;;;;;;5057472;28;20066;-91
2022/12/30 02:26:47;;;;;;;11.30;2.55;;;6.40;99.90;;;;;;5018841;28;20463;-90
2022/12/30 02:29:35;;;;;;;13.23;3.00;;;6.40;99.90;;;;;;5057896;28;20044;-91
2022/12/30 02:32:03;;;;;;;17.20;3.22;;;6.40;99.90;;;;;;5073325;28;20068;-91
2022/12/30 02:34:40;;;;;;;12.02;3.63;;;6.40;99.90;;;;;;5057310;28;20505;-91
2022/12/30 02:37:24;;;;;;;15.23;3.08;;;6.40;99.90;;;;;;5057869;28;20040;-91
2022/12/30 02:40:03;;;;;;;11.23;2.50;;;6.40;99.90;;;;;;5056614;28;20044;-91
2022/12/30 02:45:38;;;;;;;13.38;3.40;;;6.50;99.90;;;;;;5073300;28;20075;-91
2022/12/30 02:48:11;;;;;;;15.50;3.28;;;6.40;99.90;;;;;;5074016;28;20040;-91
2022/12/30 02:53:28;;;;;;;15.85;4.30;;;6.20;99.90;;;;;;5091468;28;20048;-91
2022/12/30 02:55:54;;;;;;;20.77;3.15;;;6.10;99.90;;;;;;5057384;28;20107;-90
2022/12/30 02:58:23;;;;;;;13.48;4.28;;;6.10;99.90;;;;;;5067882;28;20486;-90
2022/12/30 03:03:58;;;;;;;21.65;3.30;;;6.00;99.90;;;;;;5065341;28;20040;-91
2022/12/30 03:06:42;;;;;;;15.40;2.97;;;6.00;99.90;;;;;;5056923;28;20416;-91
2022/12/30 03:11:12;;;;;;;11.75;2.45;;;6.00;99.90;;;;;;5056420;28;20040;-91
2022/12/30 03:12:58;;;;;;;13.15;3.20;;;6.00;99.90;;;;;;5072761;28;20051;-91
2022/12/30 03:15:32;;;;;;;7.90;2.38;;;6.00;99.90;;;;;;5056662;28;20040;-90
2022/12/30 03:17:59;;;;;;;11.93;2.30;;;6.00;99.90;;;;;;5056324;28;20097;-91
2022/12/30 03:20:25;;;;;;;9.68;2.40;;;6.00;99.90;;;;;;5090900;28;20501;-91
2022/12/30 03:28:28;;;;;;;13.80;2.22;;;6.00;99.90;;;;;;5073479;28;20040;-91
2022/12/30 03:31:00;;;;;;;9.18;2.15;;;6.00;99.90;;;;;;5055765;28;20042;-91
2022/12/30 03:33:31;;;;;;;11.70;2.67;;;6.00;99.90;;;;;;5073156;28;20043;-91
2022/12/30 03:36:14;;;;;;;13.43;2.17;;;6.00;99.90;;;;;;5056071;28;20386;-92
2022/12/30 03:38:44;;;;;;;8.57;2.05;;;6.00;99.90;;;;;;5056672;28;20036;-92
2022/12/30 03:41:11;;;;;;;10.95;3.05;;;5.90;99.90;;;;;;5055742;28;20044;-92
2022/12/30 03:43:38;;;;;;;13.32;2.25;;;5.90;99.90;;;;;;5056252;28;20090;-91
2022/12/30 03:46:04;;;;;;;16.35;2.42;;;5.90;99.90;;;;;;5056704;28;20071;-91
2022/12/30 03:48:29;;;;;;;8.30;1.90;;;5.90;99.90;;;;;;5072452;28;20075;-91
2022/12/30 03:50:55;;;;;;;11.13;2.08;;;5.90;99.90;;;;;;5073479;28;20071;-91
2022/12/30 03:53:21;;;;;;;8.07;2.17;;;5.80;99.90;;;;;;5055088;28;20089;-91
2022/12/30 03:55:46;;;;;;;8.02;2.92;;;5.80;99.90;;;;;;5056432;28;20050;-91
2022/12/30 03:58:12;;;;;;;11.13;2.50;;;5.80;99.90;;;;;;5055726;28;20418;-91
2022/12/30 04:00:37;;;;;;;10.48;2.63;;;5.80;99.90;;;;;;5056504;28;20040;-91
2022/12/30 04:03:03;;;;;;;14.30;2.40;;;5.80;99.90;;;;;;5072913;28;20029;-92
2022/12/30 04:05:29;;;;;;;10.55;2.25;;;5.70;99.90;;;;;;5056126;28;20513;-91
2022/12/30 04:07:54;;;;;;;8.95;2.13;;;5.70;99.90;;;;;;5056391;28;20036;-91
2022/12/30 04:10:20;;;;;;;16.15;3.15;;;5.80;99.90;;;;;;5054849;28;20040;-91
2022/12/30 04:12:45;;;;;;;10.95;2.33;;;5.70;99.90;;;;;;5072772;28;20078;-91
2022/12/30 04:15:11;;;;;;;11.30;2.72;;;5.70;99.90;;;;;;5055682;28;20043;-91
2022/12/30 04:17:37;;;;;;;13.57;2.20;;;5.70;99.90;;;;;;5055952;28;20044;-91
2022/12/30 04:20:03;;;;;;;9.35;2.03;;;5.70;99.90;;;;;;5072755;28;20429;-91
2022/12/30 04:22:29;;;;;;;8.68;1.90;;;5.70;99.90;;;;;;5055595;28;20111;-91
2022/12/30 04:24:55;;;;;;;15.63;2.88;;;5.70;99.90;;;;;;5072390;28;20178;-91
2022/12/30 04:27:20;;;;;;;12.98;2.42;;;5.70;99.90;;;;;;5055930;28;20095;-91
2022/12/30 04:29:46;;;;;;;8.02;1.88;;;5.70;99.90;;;;;;5072776;28;20040;-92
2022/12/30 04:32:11;;;;;;;11.38;2.20;;;5.70;99.90;;;;;;5054680;28;20035;-92
2022/12/30 04:34:37;;;;;;;9.88;2.58;;;5.70;99.90;;;;;;5056447;28;20044;-91
2022/12/30 04:37:03;;;;;;;10.55;2.70;;;5.70;99.90;;;;;;5055846;28;20573;-92
2022/12/30 04:39:28;;;;;;;13.75;2.47;;;5.70;99.90;;;;;;5071726;28;20059;-92
2022/12/30 04:41:54;;;;;;;10.82;2.28;;;5.70;99.90;;;;;;5072679;28;20047;-92
2022/12/30 04:44:19;;;;;;;9.38;2.35;;;5.70;99.90;;;;;;5058256;28;20097;-93
2022/12/30 04:46:45;;;;;;;8.52;1.95;;;5.70;99.90;;;;;;5076574;28;20028;-90
2022/12/30 04:49:11;;;;;;;9.50;1.70;;;5.70;99.90;;;;;;5059049;28;20516;-92
2022/12/30 04:51:36;;;;;;;11.10;2.25;;;5.70;99.90;;;;;;5059505;28;20032;-91
2022/12/30 04:54:02;;;;;;;7.75;1.80;;;5.70;99.90;;;;;;5058500;28;20044;-91
2022/12/30 04:56:27;;;;;;;11.75;2.30;;;5.70;99.90;;;;;;5059259;28;20047;-92
2022/12/30 04:58:54;;;;;;;13.88;2.30;;;5.70;99.90;;;;;;5059412;28;20330;-92
2022/12/30 05:01:21;;;;;;;8.73;1.92;;;5.70;99.90;;;;;;5058580;28;20067;-91
2022/12/30 05:03:46;;;;;;;12.23;2.63;;;5.70;99.90;;;;;;5059225;28;20078;-91
2022/12/30 05:06:12;;;;;;;11.60;2.25;;;5.70;99.90;;;;;;5058628;28;20032;-91
2022/12/30 05:08:38;;;;;;;9.10;1.77;;;5.70;99.90;;;;;;5059308;28;20093;-91
2022/12/30 05:11:03;;;;;;;11.57;2.28;;;5.60;99.90;;;;;;5058857;28;20067;-91
2022/12/30 05:13:29;;;;;;;14.00;2.70;;;5.70;99.90;;;;;;5075272;28;20040;-90
2022/12/30 05:15:54;;;;;;;10.27;1.77;;;5.60;99.90;;;;;;5059230;28;20127;-91
2022/12/30 05:18:20;;;;;;;13.38;2.55;;;5.70;99.90;;;;;;5058386;28;20035;-91
2022/12/30 05:20:47;;;;;;;13.93;2.45;;;5.70;99.90;;;;;;5075208;28;20040;-91
2022/12/30 05:26:13;;;;;;;16.60;2.50;;;5.60;99.90;;;;;;5034554;28;20101;-91
2022/12/30 05:28:39;;;;;;;11.32;2.28;;;5.70;99.90;;;;;;5059010;28;20667;-91
2022/12/30 05:31:05;;;;;;;12.57;2.55;;;5.60;99.90;;;;;;5074642;28;20044;-91
2022/12/30 05:33:30;;;;;;;9.65;1.92;;;5.60;99.90;;;;;;5058161;28;20040;-91
2022/12/30 05:35:56;;;;;;;8.57;2.17;;;5.60;99.90;;;;;;5058437;28;20178;-91
2022/12/30 05:38:21;;;;;;;7.03;2.35;;;5.60;99.90;;;;;;5075168;28;20062;-91
2022/12/30 05:40:47;;;;;;;16.00;2.53;;;5.60;99.90;;;;;;5058777;28;20036;-91
2022/12/30 05:43:13;;;;;;;6.20;1.48;;;5.60;99.90;;;;;;5057821;28;20032;-91
2022/12/30 05:45:38;;;;;;;11.23;2.38;;;5.60;99.90;;;;;;5058454;28;20119;-91
2022/12/30 05:48:04;;;;;;;11.00;2.60;;;5.50;99.90;;;;;;5074345;28;20036;-91
2022/12/30 05:50:30;;;;;;;12.10;2.65;;;5.60;99.90;;;;;;5044177;28;20032;-91
2022/12/30 05:52:55;;;;;;;11.20;2.00;;;5.60;99.90;;;;;;5038495;28;20631;-91
2022/12/30 05:55:21;;;;;;;15.65;2.70;;;5.50;99.90;;;;;;5043460;28;20047;-91
2022/12/30 05:57:46;;;;;;;13.90;2.60;;;5.60;99.90;;;;;;5075004;28;20046;-91
2022/12/30 06:00:13;;;;;;;12.77;2.13;;;5.50;99.90;;;;;;5075044;28;20050;-92
2022/12/30 06:02:38;;;;;;;13.18;2.53;;;5.50;99.90;;;;;;5091540;28;20397;-91
2022/12/30 06:05:04;;;;;;;8.98;1.60;;;5.50;99.90;;;;;;5058343;28;20092;-91
2022/12/30 06:07:30;;;;;;;10.13;2.42;;;5.50;99.90;;;;;;5074434;28;20490;-91
2022/12/30 06:09:56;;;;;;;14.57;4.65;;;5.50;99.90;;;;;;5054901;28;20051;-91
2022/12/30 06:12:21;;;;;;;17.83;7.22;;;5.50;99.90;;;;;;5053837;28;20632;-91
2022/12/30 06:14:47;;;;;;;15.02;5.55;;;5.50;99.90;;;;;;5067577;28;20036;-93
2022/12/30 06:17:13;;;;;;;17.60;8.43;;;5.50;99.90;;;;;;5056887;28;20046;-91
2022/12/30 06:19:38;;;;;;;13.63;4.97;;;5.50;99.90;;;;;;5056817;28;20053;-92
2022/12/30 06:22:04;;;;;;;18.23;5.50;;;5.50;99.90;;;;;;5073396;28;20032;-91
2022/12/30 06:24:29;;;;;;;11.90;4.30;;;5.50;99.90;;;;;;5073702;28;20043;-91
2022/12/30 06:26:55;;;;;;;14.38;3.22;;;5.50;99.90;;;;;;5073407;28;20067;-92
2022/12/30 06:29:20;;;;;;;16.48;4.00;;;5.50;99.90;;;;;;5057174;28;20513;-91
2022/12/30 06:31:46;;;;;;;11.52;3.13;;;5.50;99.90;;;;;;5055911;28;20043;-91
2022/12/30 06:34:12;;;;;;;9.68;3.35;;;5.50;99.90;;;;;;5057093;28;20043;-91
2022/12/30 06:36:37;;;;;;;17.98;4.70;;;5.50;99.90;;;;;;5057196;28;20046;-92
2022/12/30 06:39:03;;;;;;;13.75;3.05;;;5.50;99.90;;;;;;5055359;28;20086;-91
2022/12/30 06:41:28;;;;;;;12.32;2.72;;;5.40;99.90;;;;;;5073482;28;20059;-93
2022/12/30 06:43:54;;;;;;;7.30;1.95;;;5.40;99.90;;;;;;5056413;28;20043;-91
2022/12/30 06:46:19;;;;;;;11.88;2.45;;;5.40;99.90;;;;;;5056236;28;20075;-92
2022/12/30 06:48:45;;;;;;;11.00;2.15;;;5.40;99.90;;;;;;5056730;28;20500;-91
2022/12/30 06:51:11;;;;;;;11.48;2.42;;;5.40;99.90;;;;;;5072396;28;20089;-92
2022/12/30 06:53:36;;;;;;;12.48;3.05;;;5.40;99.90;;;;;;5056524;28;20038;-91
2022/12/30 06:56:02;;;;;;;12.60;3.08;;;5.40;99.90;;;;;;5056826;28;20494;-92
2022/12/30 06:58:28;;;;;;;13.45;2.05;;;5.40;99.90;;;;;;5064462;28;20494;-92
2022/12/30 07:00:54;;;;;;;9.35;2.40;;;5.40;99.90;;;;;;5035873;28;20099;-91
2022/12/30 07:03:19;;;;;;;12.95;2.78;;;5.40;99.90;;;;;;5038240;28;20123;-92
2022/12/30 07:05:45;;;;;;;13.93;2.88;;;5.40;99.90;;;;;;5055119;28;20068;-92
2022/12/30 07:08:11;;;;;;;15.95;2.63;;;5.40;99.90;;;;;;5049576;28;20458;-91
2022/12/30 07:10:37;;;;;;;14.23;2.60;;;5.40;99.90;;;;;;5037478;28;20032;-91
2022/12/30 07:13:02;;;;;;;18.58;3.55;;;5.40;99.90;;;;;;5051096;28;20037;-92
2022/12/30 07:15:28;;;;;;;14.13;2.72;;;5.40;99.90;;;;;;5037465;28;20562;-92
2022/12/30 07:17:53;;;;;;;13.45;1.90;;;5.40;99.90;;;;;;5073108;28;20040;-92
2022/12/30 07:20:19;;;;;;;12.38;2.55;;;5.40;99.90;;;;;;5056134;28;20078;-92
2022/12/30 07:22:44;;;;;;;10.80;1.58;;;5.40;99.90;;;;;;5049587;28;20040;-92
2022/12/30 07:25:10;;;;;;;14.82;2.47;;;5.40;99.90;;;;;;5036605;28;20119;-92
2022/12/30 07:27:36;;;;;;;12.48;2.40;;;5.40;99.90;;;;;;5036294;28;20040;-92
2022/12/30 07:30:03;;;;;;;11.38;2.65;;;5.40;99.90;;;;;;5062214;28;20075;-91
2022/12/30 07:32:29;;;;;;;10.48;2.97;;;5.40;99.90;;;;;;5056002;28;20042;-91
2022/12/30 07:34:55;;;;;;;11.45;2.42;;;5.40;99.90;;;;;;5055569;28;20043;-91
2022/12/30 07:37:21;;;;;;;12.23;2.53;;;5.40;99.90;;;;;;5056055;28;20044;-93
2022/12/30 07:39:47;;;;;;;11.63;2.65;;;5.40;99.90;;;;;;5056040;28;20040;-92
2022/12/30 07:42:13;;;;;;;15.15;2.13;;;5.50;99.90;;;;;;5055171;28;20032;-92
2022/12/30 07:44:38;;;;;;;15.35;2.47;;;5.40;99.90;;;;;;5055396;28;20043;-91
2022/12/30 07:47:05;;;;;;;12.75;2.55;;;5.40;99.90;;;;;;5055939;28;20513;-92
2022/12/30 07:49:30;;;;;;;13.48;2.70;;;5.40;99.90;;;;;;5072151;28;20548;-91
2022/12/30 07:51:56;;;;;;;14.00;2.10;;;5.40;99.90;;;;;;5055895;28;20044;-92
2022/12/30 07:54:22;;;;;;;11.82;2.47;;;5.40;99.90;;;;;;5055033;28;20037;-93
2022/12/30 07:56:47;;;;;;;10.02;2.17;;;5.40;99.90;;;;;;5056201;28;20498;-92
2022/12/30 07:59:13;;;;;;;8.10;1.80;;;5.40;99.90;;;;;;5055694;28;20044;-91
2022/12/30 08:01:39;;;;;;;12.40;2.88;;;5.40;99.90;;;;;;5054594;28;20643;-91
2022/12/30 08:04:05;;;;;;;14.40;2.30;;;5.40;99.90;;;;;;5055896;28;20085;-92
2022/12/30 08:06:31;;;;;;;17.90;3.20;;;5.40;99.90;;;;;;5054758;28;20024;-92
2022/12/30 08:08:56;;;;;;;13.02;2.97;;;5.50;99.90;;;;;;5056261;28;20044;-92
2022/12/30 08:11:22;;;;;;;16.95;3.47;;;5.50;99.90;;;;;;5055992;28;20044;-92
2022/12/30 08:13:47;;;;;;;13.70;2.47;;;5.50;99.90;;;;;;5071090;28;20119;-91
2022/12/30 08:16:17;;;;;;;9.38;2.30;;;5.50;99.90;;;;;;5072037;28;20036;-92
2022/12/30 08:18:43;;;;;;;9.35;2.97;;;5.50;99.90;;;;;;5056514;28;20032;-92
2022/12/30 08:21:16;;;;;;;10.73;1.88;;;5.50;99.90;;;;;;5076171;28;20373;-90
2022/12/30 08:23:44;;;;;;;12.48;2.00;;;5.50;99.90;;;;;;5058848;28;20111;-91
2022/12/30 08:26:21;;;;;;;7.13;1.90;;;5.50;99.90;;;;;;5059222;28;20075;-91
2022/12/30 08:28:47;;;;;;;8.70;1.98;;;5.50;99.90;;;;;;5075956;28;20119;-92
2022/12/30 08:31:16;;;;;;;11.93;2.03;;;5.60;99.90;;;;;;5058291;28;20572;-92
2022/12/30 08:33:42;;;;;;;11.10;2.22;;;5.60;99.90;;;;;;5058735;28;20405;-92
2022/12/30 08:36:11;;;;;;;8.15;2.38;;;5.60;99.90;;;;;;5058344;28;20050;-92
2022/12/30 08:38:41;;;;;;;10.02;2.53;;;5.60;99.90;;;;;;5075150;28;20044;-92
2022/12/30 08:41:23;;;;;;;11.45;2.25;;;5.60;99.90;;;;;;5058992;28;20130;-91
2022/12/30 08:43:49;;;;;;;10.85;2.08;;;5.70;99.90;;;;;;5057851;28;20461;-91
2022/12/30 08:46:16;;;;;;;11.75;2.70;;;5.70;99.90;;;;;;5058974;28;20051;-92
2022/12/30 08:48:42;;;;;;;9.57;1.77;;;5.80;99.90;;;;;;5075708;28;20040;-91
2022/12/30 08:51:08;;;;;;;10.40;2.53;;;5.80;99.90;;;;;;5074321;28;20047;-93
2022/12/30 08:53:34;;;;;;;16.58;2.92;;;5.80;99.90;;;;;;5044913;28;20067;-91
2022/12/30 08:56:10;;;;;;;9.32;2.03;;;5.90;99.90;;;;;;5039660;28;20094;-92
2022/12/30 08:58:36;;;;;;;15.15;2.08;;;5.90;99.90;;;;;;5051947;28;20033;-91
2022/12/30 09:01:38;;;;;;;12.00;2.10;;;5.90;99.90;;;;;;5037392;28;20417;-92
2022/12/30 09:04:06;;;;;;;8.48;1.85;;;6.00;99.90;;;;;;5038837;28;20040;-92
2022/12/30 09:06:33;;;;;;;10.52;1.92;;;6.00;99.90;;;;;;5035107;28;20033;-91
2022/12/30 09:09:00;;;;;;;11.25;2.10;;;6.00;99.90;;;;;;5040266;28;20040;-91
2022/12/30 09:11:31;;;;;;;8.15;1.60;;;6.10;99.90;;;;;;5038486;28;20032;-92
2022/12/30 09:13:58;;;;;;;9.25;2.03;;;6.10;99.90;;;;;;5036336;28;20036;-91
2022/12/30 09:16:24;;;;;;;12.77;2.42;;;6.20;99.90;;;;;;5054094;28;20075;-91
2022/12/30 09:18:51;;;;;;;10.90;1.95;;;6.20;99.90;;;;;;5042522;28;20072;-92
2022/12/30 09:21:17;;;;;;;8.55;2.00;;;6.20;99.90;;;;;;5037696;28;20079;-91
2022/12/30 09:23:43;;;;;;;10.70;2.17;;;6.30;99.90;;;;;;5037372;28;20032;-91
2022/12/30 09:26:13;;;;;;;9.50;2.00;;;6.30;99.90;;;;;;5038707;28;20033;-91
2022/12/30 09:28:38;;;;;;;7.72;1.77;;;6.30;99.90;;;;;;5037487;28;20089;-92
2022/12/30 09:31:05;;;;;;;9.20;1.85;;;6.40;99.90;;;;;;5054687;28;20154;-92
2022/12/30 09:33:31;;;;;;;11.50;2.35;;;6.40;99.90;;;;;;5036788;28;20036;-91
2022/12/30 09:35:57;;;;;;;10.55;1.92;;;6.40;99.90;;;;;;5050218;28;20089;-92
2022/12/30 09:38:23;;;;;;;12.00;2.63;;;6.40;99.90;;;;;;5074707;28;20119;-92
2022/12/30 09:41:10;;;;;;;8.20;1.98;;;6.50;99.90;;;;;;5057172;28;20082;-91
2022/12/30 09:44:07;;;;;;;10.90;1.73;;;6.50;99.90;;;;;;5057414;28;20085;-92
2022/12/30 09:46:50;;;;;;;12.23;2.08;;;6.50;99.90;;;;;;5057546;28;20054;-91
2022/12/30 09:49:21;;;;;;;11.70;2.35;;;6.60;99.90;;;;;;5074468;28;20032;-92
2022/12/30 09:51:57;;;;;;;10.25;2.13;;;6.60;99.90;;;;;;5056868;28;20036;-92
2022/12/30 09:54:26;;;;;;;9.13;2.53;;;6.60;99.90;;;;;;5070661;28;20519;-92
2022/12/30 09:56:57;;;;;;;9.82;2.25;;;6.70;99.90;;;;;;5074622;28;20036;-92
2022/12/30 09:59:32;;;;;;;13.15;2.30;;;6.70;99.90;;;;;;5073415;28;20089;-92
2022/12/30 10:02:21;;;;;;;8.98;2.22;;;6.80;99.90;;;;;;5058222;28;20032;-91
2022/12/30 10:04:47;;;;;;;7.47;1.63;;;6.80;99.90;;;;;;5052853;28;20032;-92
2022/12/30 10:07:24;;;;;;;12.80;2.17;;;6.90;99.90;;;;;;5037821;28;20040;-91
2022/12/30 10:10:17;;;;;;;7.85;1.70;;;6.90;99.90;;;;;;5054953;28;20059;-92
2022/12/30 10:12:52;;;;;;;11.02;1.65;;;6.90;99.90;;;;;;5056201;28;20501;-92
2022/12/30 10:15:30;;;;;;;9.82;2.25;;;7.00;99.90;;;;;;5073442;28;20036;-92
2022/12/30 10:18:07;;;;;;;8.35;1.80;;;7.00;99.90;;;;;;5053507;28;20066;-92
2022/12/30 10:21:04;;;;;;;12.73;2.00;;;7.10;99.90;;;;;;5051099;28;20159;-91
2022/12/30 10:24:20;;;;;;;8.65;1.85;;;7.10;99.90;;;;;;5068558;28;20028;-91
2022/12/30 10:26:48;;;;;;;11.20;2.28;;;7.20;99.90;;;;;;5015420;28;20121;-91
2022/12/30 10:29:25;;;;;;;9.05;1.92;;;7.20;99.90;;;;;;5072143;28;20055;-91
2022/12/30 10:31:53;;;;;;;9.50;2.05;;;7.30;99.90;;;;;;5055829;28;20036;-91
2022/12/30 10:34:23;;;;;;;9.88;2.08;;;7.30;99.90;;;;;;5070405;28;20073;-90
2022/12/30 10:37:04;;;;;;;9.15;1.88;;;7.30;99.90;;;;;;5071191;28;20036;-91
2022/12/30 10:39:33;;;;;;;11.23;2.30;;;7.40;99.90;;;;;;5045023;28;20036;-91
2022/12/30 10:42:18;;;;;;;9.73;1.80;;;7.40;99.90;;;;;;5053222;28;20595;-90
2022/12/30 10:45:08;;;;;;;5.32;2.00;;;7.50;99.90;;;;;;5055147;28;20119;-91
2022/12/30 10:47:40;;;;;;;13.32;2.88;;;7.60;99.90;;;;;;5055750;28;20050;-91
2022/12/30 10:50:38;;;;;;;8.00;2.05;;;7.60;99.90;;;;;;5033959;28;20040;-92
2022/12/30 10:53:08;;;;;;;10.35;1.95;;;7.60;99.90;;;;;;5061845;28;20044;-92
2022/12/30 10:55:39;;;;;;;7.53;1.88;;;7.70;99.90;;;;;;5057100;28;20051;-92
2022/12/30 10:58:13;;;;;;;7.82;2.00;;;7.70;99.90;;;;;;5055630;28;20085;-92
2022/12/30 11:00:40;;;;;;;10.40;2.83;;;7.70;99.90;;;;;;5073104;28;20043;-92
2022/12/30 11:03:40;;;;;;;8.10;1.83;;;7.80;99.90;;;;;;5051519;28;20036;-91
2022/12/30 11:06:33;;;;;;;9.95;1.63;;;7.80;99.90;;;;;;5022813;28;20458;-92
2022/12/30 11:09:11;;;;;;;;;;;7.80;99.90;;;;;;5050372;28;20072;-92
2022/12/30 11:15:09;;;;;;;7.28;1.95;;;7.90;99.90;;;;;;5051724;28;20429;-91
2022/12/30 11:17:53;;;;;;;9.35;2.60;;;7.90;99.90;;;;;;5048562;28;20036;-92
2022/12/30 11:20:32;;;;;;;8.90;1.88;;;7.90;99.90;;;;;;5055788;28;20044;-91
2022/12/30 11:23:02;;;;;;;6.25;1.77;;;8.00;99.90;;;;;;5054968;28;20067;-91
2022/12/30 11:25:43;;;;;;;10.65;2.17;;;8.00;99.90;;;;;;5055975;28;20604;-92
2022/12/30 11:28:25;;;;;;;9.32;1.88;;;8.10;99.90;;;;;;5055890;28;20034;-91
2022/12/30 11:30:50;;;;;;;10.90;2.00;;;8.10;99.90;;;;;;5055964;28;20560;-91
2022/12/30 11:33:20;;;;;;;6.32;1.63;;;8.10;99.90;;;;;;5069842;28;20126;-92
2022/12/30 11:35:47;;;;;;;9.60;2.08;;;8.20;99.90;;;;;;5049814;28;20036;-92
2022/12/30 11:38:36;;;;;;;8.45;1.83;;;8.20;99.90;;;;;;5055970;28;20520;-92
2022/12/30 11:41:17;;;;;;;11.00;2.13;;;8.30;99.90;;;;;;5071331;28;20055;-92
2022/12/30 11:43:51;;;;;;;8.20;1.52;;;8.30;99.90;;;;;;5055536;28;20044;-91
2022/12/30 11:46:22;;;;;;;8.40;1.83;;;8.30;99.90;;;;;;5072004;28;20040;-91
2022/12/30 11:48:57;;;;;;;8.57;1.80;;;8.30;99.90;;;;;;5055322;28;20036;-92
2022/12/30 11:51:28;;;;;;;6.80;1.45;;;8.30;99.90;;;;;;5055918;28;20048;-92
2022/12/30 11:54:16;;;;;;;10.25;1.85;;;8.40;99.90;;;;;;5056856;28;20058;-93
2022/12/30 11:56:57;;;;;;;6.03;1.40;;;8.40;99.90;;;;;;5059790;28;20490;-91
2022/12/30 11:59:45;;;;;;;5.88;1.40;;;8.40;99.90;;;;;;5076443;28;20047;-91
2022/12/30 12:02:22;;;;;;;7.63;1.50;;;8.40;99.90;;;;;;5059090;28;20140;-91
2022/12/30 12:04:48;;;;;;;7.15;1.50;;;8.50;99.90;;;;;;5041268;28;20040;-92
2022/12/30 12:07:17;;;;;;;5.80;1.63;;;8.50;99.90;;;;;;5089605;28;20647;-91
2022/12/30 12:10:19;;;;;;;11.93;2.95;;;8.50;99.90;;;;;;5060009;28;20101;-91
2022/12/30 12:12:51;;;;;;;6.50;1.52;;;8.60;99.90;;;;;;5057651;28;20680;-91
2022/12/30 12:15:30;;;;;;;7.47;1.52;;;8.60;99.90;;;;;;5076652;28;20424;-92
2022/12/30 12:18:11;;;;;;;7.82;1.60;;;8.60;99.90;;;;;;5058546;28;20524;-92
2022/12/30 12:21:07;;;;;;;5.68;1.50;;;8.60;99.90;;;;;;5044944;28;20043;-91
2022/12/30 12:24:00;;;;;;;8.93;1.60;;;8.60;99.90;;;;;;5005012;28;20044;-91
2022/12/30 12:26:31;;;;;;;5.28;1.00;;;8.60;99.90;;;;;;5043300;28;20616;-92
2022/12/30 12:28:59;;;;;;;6.55;1.25;;;8.70;99.90;;;;;;5039431;28;20040;-91
2022/12/30 12:31:51;;;;;;;11.50;1.40;;;8.70;99.90;;;;;;5049751;28;20044;-90
2022/12/30 12:34:22;;;;;;;8.15;1.98;;;8.80;99.90;;;;;;5074481;28;20066;-91
2022/12/30 12:37:09;;;;;;;5.60;1.30;;;8.80;99.90;;;;;;5067218;28;20040;-90
2022/12/30 12:39:50;;;;;;;5.68;1.30;;;8.80;99.90;;;;;;5040015;28;20072;-91
2022/12/30 12:42:22;;;;;;;4.50;1.00;;;8.80;99.90;;;;;;5038691;28;20040;-91
2022/12/30 12:45:14;;;;;;;9.20;1.17;;;8.80;99.90;;;;;;5052081;28;20505;-91
2022/12/30 12:47:53;;;;;;;7.28;1.40;;;8.80;99.90;;;;;;5059000;28;20278;-91
2022/12/30 12:50:35;;;;;;;8.07;1.45;;;8.80;99.90;;;;;;5075377;28;20443;-91
2022/12/30 12:53:34;;;;;;;6.95;1.52;;;8.90;99.90;;;;;;5058521;28;20053;-91
2022/12/30 12:56:41;;;;;;;5.32;0.85;;;8.80;99.90;;;;;;5057743;28;20053;-91
2022/12/30 12:59:50;;;;;;;6.13;1.13;;;8.90;99.90;;;;;;5037385;28;20540;-92
2022/12/30 13:02:23;;;;;;;6.00;1.10;;;8.90;99.90;;;;;;4999720;28;20455;-90
2022/12/30 13:05:13;;;;;;;7.25;1.20;;;8.90;99.90;;;;;;5036633;28;20497;-90
2022/12/30 13:08:06;;;;;;;4.50;1.27;;;9.00;99.90;;;;;;5036980;28;20101;-92
2022/12/30 13:10:44;;;;;;;;;;;9.00;99.90;;;;;;5052304;28;20047;-91
2022/12/30 13:13:14;;;;;;;5.07;0.90;;;9.10;99.90;;;;;;5030320;28;19955;-91
2022/12/30 13:15:43;;;;;;;8.90;1.33;;;9.10;99.90;;;;;;5075110;28;20040;-90
2022/12/30 13:18:16;;;;;;;5.30;1.10;;;9.10;99.90;;;;;;5058011;28;20047;-91
2022/12/30 13:21:02;;;;;;;6.47;1.13;;;9.10;99.90;;;;;;5058158;28;20168;-91
2022/12/30 13:23:34;;;;;;;6.53;1.13;;;9.10;99.90;;;;;;5074909;28;20533;-91
2022/12/30 13:26:04;;;;;;;8.15;1.13;;;9.10;99.90;;;;;;5057246;28;20512;-91
2022/12/30 13:28:33;;;;;;;6.50;1.10;;;9.10;99.90;;;;;;5075306;28;20071;-91
2022/12/30 13:31:14;;;;;;;7.13;1.42;;;9.10;99.90;;;;;;5057040;28;20044;-91
2022/12/30 13:34:05;;;;;;;4.15;1.15;;;9.20;99.90;;;;;;5037740;28;20394;-91
2022/12/30 13:36:41;;;;;;;7.60;1.52;;;9.20;99.90;;;;;;5039766;28;20090;-92
2022/12/30 13:39:30;;;;;;;6.05;1.10;;;9.20;99.90;;;;;;5054652;28;20076;-91
2022/12/30 13:42:06;;;;;;;5.72;2.15;;;9.20;99.90;;;;;;5020239;28;20105;-91
2022/12/30 13:44:39;;;;;;;5.60;1.10;;;9.20;99.90;;;;;;5065972;28;20143;-91
2022/12/30 13:47:06;;;;;;;7.13;1.35;;;9.20;99.90;;;;;;5034961;28;20085;-91
2022/12/30 13:49:35;;;;;;;5.40;1.20;;;9.20;99.90;;;;;;5043592;28;20040;-90
2022/12/30 13:52:04;;;;;;;7.03;1.52;;;9.20;99.90;;;;;;5072362;28;20051;-90
2022/12/30 13:54:32;;;;;;;4.07;0.85;;;9.20;99.90;;;;;;5056899;28;20409;-92
2022/12/30 13:57:01;;;;;;;4.93;1.10;;;9.30;99.90;;;;;;5072726;28;20036;-91
2022/12/30 13:59:31;;;;;;;4.57;1.25;;;9.30;99.90;;;;;;5074874;28;20040;-91
2022/12/30 14:02:18;;;;;;;5.43;1.10;;;9.30;99.90;;;;;;5073418;28;20069;-91
2022/12/30 14:04:45;;;;;;;5.25;1.38;;;9.40;99.90;;;;;;5057614;28;20040;-91
2022/12/30 14:07:41;;;;;;;4.10;1.27;;;9.40;99.90;;;;;;5058013;28;20122;-91